createdAt,value
2022-12-04T00:00:52.921Z,2.65
2022-12-04T00:03:22.634Z,2.64
2022-12-04T00:05:52.649Z,2.64
2022-12-04T00:08:23.316Z,2.61
2022-12-04T00:11:00.857Z,2.62
2022-12-04T00:13:30.759Z,2.60
2022-12-04T00:16:02.393Z,2.56
2022-12-04T00:18:34.771Z,2.57
2022-12-04T00:21:20.102Z,2.59
2022-12-04T00:23:54.609Z,2.59
2022-12-04T00:26:33.293Z,2.54
2022-12-04T00:29:09.064Z,2.56
2022-12-04T00:31:38.285Z,2.57
2022-12-04T00:34:15.491Z,2.59
2022-12-04T00:36:45.749Z,2.54
2022-12-04T00:39:22.500Z,2.53
2022-12-04T00:42:07.587Z,2.52
2022-12-04T00:44:36.312Z,2.48
2022-12-04T00:47:05.241Z,2.46
2022-12-04T00:49:35.698Z,2.44
2022-12-04T00:52:11.408Z,2.47
2022-12-04T00:54:41.568Z,2.45
2022-12-04T00:57:12.393Z,2.47
2022-12-04T00:59:49.396Z,2.44
2022-12-04T01:02:18.531Z,2.43
2022-12-04T01:04:50.318Z,2.42
2022-12-04T01:07:19.534Z,2.42
2022-12-04T01:09:48.467Z,2.43
2022-12-04T01:12:21.083Z,2.45
2022-12-04T01:14:51.227Z,2.45
2022-12-04T01:17:20.291Z,2.44
2022-12-04T01:19:54.595Z,2.40
2022-12-04T01:22:25.554Z,2.34
2022-12-04T01:24:57.953Z,2.34
2022-12-04T01:27:29.838Z,2.33
2022-12-04T01:30:08.132Z,2.34
2022-12-04T01:32:38.899Z,2.34
2022-12-04T01:35:12.942Z,2.32
2022-12-04T01:37:43.194Z,2.30
2022-12-04T01:40:21.421Z,2.29
2022-12-04T01:42:56.313Z,2.31
2022-12-04T01:45:44.574Z,2.31
2022-12-04T01:48:24.502Z,2.25
2022-12-04T01:50:57.608Z,2.23
2022-12-04T01:53:26.558Z,2.23
2022-12-04T01:55:56.244Z,2.22
2022-12-04T01:58:32.379Z,2.22
2022-12-04T02:01:08.513Z,2.20
2022-12-04T02:03:38.454Z,1.98
2022-12-04T02:06:08.473Z,2.15
2022-12-04T02:08:37.987Z,2.17
2022-12-04T02:11:17.967Z,2.15
2022-12-04T02:13:58.790Z,2.13
2022-12-04T02:16:40.677Z,2.08
2022-12-04T02:19:49.001Z,1.99
2022-12-04T02:22:35.738Z,2.05
2022-12-04T02:25:11.976Z,2.09
2022-12-04T02:28:06.514Z,2.10
2022-12-04T02:30:40.825Z,2.08
2022-12-04T02:33:18.504Z,2.08
2022-12-04T02:35:50.540Z,2.07
2022-12-04T02:38:27.410Z,2.02
2022-12-04T02:41:00.310Z,2.06
2022-12-04T02:43:34.445Z,2.04
2022-12-04T02:46:08.719Z,2.03
2022-12-04T02:48:42.038Z,2.04
2022-12-04T02:51:16.165Z,1.99
2022-12-04T02:53:50.758Z,2.02
2022-12-04T02:56:25.128Z,2.03
2022-12-04T02:58:59.035Z,2.00
2022-12-04T03:01:34.431Z,2.00
2022-12-04T03:04:12.037Z,2.01
2022-12-04T03:06:48.971Z,2.02
2022-12-04T03:09:23.765Z,2.02
2022-12-04T03:11:58.036Z,2.02
2022-12-04T03:14:32.779Z,2.02
2022-12-04T03:17:10.268Z,2.04
2022-12-04T03:19:43.096Z,2.00
2022-12-04T03:22:17.088Z,2.02
2022-12-04T03:24:51.680Z,2.03
2022-12-04T03:27:30.345Z,2.01
2022-12-04T03:30:05.835Z,1.97
2022-12-04T03:32:42.960Z,1.93
2022-12-04T03:35:19.035Z,1.88
2022-12-04T03:37:58.050Z,1.90
2022-12-04T03:40:35.306Z,1.88
2022-12-04T03:43:08.959Z,1.86
2022-12-04T03:45:46.390Z,1.79
2022-12-04T03:48:23.624Z,1.86
2022-12-04T03:51:04.033Z,1.89
2022-12-04T03:53:39.709Z,1.87
2022-12-04T03:56:15.798Z,1.86
2022-12-04T03:58:48.686Z,1.80
2022-12-04T04:01:24.614Z,1.91
2022-12-04T04:03:56.674Z,1.90
2022-12-04T04:06:32.500Z,1.77
2022-12-04T04:09:06.784Z,1.88
2022-12-04T04:11:47.633Z,1.88
2022-12-04T04:14:39.533Z,1.87
2022-12-04T04:17:34.941Z,1.87
2022-12-04T04:20:28.837Z,1.78
2022-12-04T04:23:17.703Z,1.90
2022-12-04T04:25:49.409Z,1.79
2022-12-04T04:28:32.661Z,1.90
2022-12-04T04:31:14.631Z,1.92
2022-12-04T04:33:53.704Z,1.92
2022-12-04T04:36:33.828Z,1.92
2022-12-04T04:39:11.581Z,1.93
2022-12-04T04:41:51.398Z,1.94
2022-12-04T04:44:26.801Z,1.96
2022-12-04T04:47:00.947Z,1.95
2022-12-04T04:49:35.518Z,1.98
2022-12-04T04:52:05.126Z,1.96
2022-12-04T04:54:35.560Z,2.00
2022-12-04T04:57:04.103Z,1.88
2022-12-04T04:59:34.707Z,2.01
2022-12-04T05:02:03.691Z,1.87
2022-12-04T05:04:33.710Z,1.91
2022-12-04T05:07:02.578Z,1.98
2022-12-04T05:09:30.913Z,1.99
2022-12-04T05:11:59.364Z,2.01
2022-12-04T05:14:27.738Z,2.01
2022-12-04T05:17:01.306Z,1.95
2022-12-04T05:19:53.120Z,2.01
2022-12-04T05:22:24.519Z,1.98
2022-12-04T05:24:53.505Z,1.87
2022-12-04T05:27:22.795Z,1.95
2022-12-04T05:29:53.788Z,2.02
2022-12-04T05:32:23.647Z,2.05
2022-12-04T05:34:56.437Z,2.06
2022-12-04T05:37:25.331Z,2.07
2022-12-04T05:39:54.762Z,2.00
2022-12-04T05:42:23.695Z,2.07
2022-12-04T05:44:52.277Z,2.08
2022-12-04T05:47:20.745Z,2.10
2022-12-04T05:49:49.282Z,2.09
2022-12-04T05:52:19.214Z,2.12
2022-12-04T05:54:47.737Z,2.13
2022-12-04T05:57:16.282Z,2.07
2022-12-04T05:59:45.078Z,2.03
2022-12-04T06:02:13.546Z,2.13
2022-12-04T06:04:42.046Z,2.16
2022-12-04T06:07:13.570Z,2.15
2022-12-04T06:09:43.951Z,2.19
2022-12-04T06:12:20.526Z,2.20
2022-12-04T06:14:50.904Z,2.10
2022-12-04T06:17:21.836Z,2.19
2022-12-04T06:19:53.516Z,2.13
2022-12-04T06:22:23.200Z,2.17
2022-12-04T06:24:56.984Z,2.10
2022-12-04T06:27:34.866Z,2.12
2022-12-04T06:30:06.824Z,2.11
2022-12-04T06:32:38.266Z,2.16
2022-12-04T06:35:25.625Z,2.18
2022-12-04T06:37:54.139Z,2.19
2022-12-04T06:40:29.952Z,2.20
2022-12-04T06:42:58.850Z,2.19
2022-12-04T06:45:30.937Z,2.15
2022-12-04T06:48:05.870Z,2.18
2022-12-04T06:50:38.236Z,2.16
2022-12-04T06:53:26.489Z,2.08
2022-12-04T06:56:07.011Z,2.20
2022-12-04T06:58:42.433Z,2.18
2022-12-04T07:01:18.069Z,2.22
2022-12-04T07:03:51.758Z,2.11
2022-12-04T07:06:27.714Z,2.18
2022-12-04T07:09:04.299Z,2.23
2022-12-04T07:11:35.504Z,2.25
2022-12-04T07:14:13.717Z,2.22
2022-12-04T07:16:44.504Z,2.18
2022-12-04T07:19:17.958Z,2.24
2022-12-04T07:21:51.637Z,2.19
2022-12-04T07:24:21.598Z,2.25
2022-12-04T07:26:56.529Z,2.27
2022-12-04T07:29:26.449Z,2.25
2022-12-04T07:31:58.180Z,2.27
2022-12-04T07:34:28.538Z,2.29
2022-12-04T07:36:59.513Z,2.17
2022-12-04T07:39:29.576Z,2.29
2022-12-04T07:42:07.322Z,2.34
2022-12-04T07:44:37.316Z,2.28
2022-12-04T07:47:14.681Z,2.34
2022-12-04T07:49:45.889Z,2.29
2022-12-04T07:52:18.853Z,2.34
2022-12-04T07:54:53.199Z,2.35
2022-12-04T07:57:23.053Z,2.36
2022-12-04T07:59:51.390Z,2.44
2022-12-04T08:02:20.994Z,2.36
2022-12-04T08:04:49.559Z,2.26
2022-12-04T08:07:18.054Z,2.46
2022-12-04T08:09:46.352Z,2.48
2022-12-04T08:12:14.753Z,2.47
2022-12-04T08:14:44.838Z,2.47
2022-12-04T08:17:15.310Z,2.39
2022-12-04T08:19:43.946Z,2.52
2022-12-04T08:22:12.506Z,2.38
2022-12-04T08:24:40.953Z,2.55
2022-12-04T08:27:09.427Z,2.57
2022-12-04T08:29:38.351Z,2.55
2022-12-04T08:32:08.597Z,2.63
2022-12-04T08:34:37.047Z,2.51
2022-12-04T08:37:07.953Z,2.66
2022-12-04T08:39:36.867Z,2.64
2022-12-04T08:42:05.528Z,2.67
2022-12-04T08:44:33.970Z,2.66
2022-12-04T08:47:05.380Z,2.71
2022-12-04T08:49:35.432Z,2.80
2022-12-04T08:52:04.052Z,2.77
2022-12-04T08:54:36.116Z,2.84
2022-12-04T08:57:05.466Z,2.83
2022-12-04T08:59:34.085Z,2.90
2022-12-04T09:02:02.718Z,2.89
2022-12-04T09:04:31.203Z,2.90
2022-12-04T09:07:01.761Z,2.96
2022-12-04T09:09:30.427Z,2.93
2022-12-04T09:11:58.919Z,3.04
2022-12-04T09:14:27.315Z,3.09
2022-12-04T09:16:55.796Z,3.13
2022-12-04T09:19:24.959Z,3.14
2022-12-04T09:22:02.449Z,3.14
2022-12-04T09:24:37.023Z,3.17
2022-12-04T09:27:14.643Z,3.21
2022-12-04T09:29:43.567Z,3.25
2022-12-04T09:32:11.975Z,3.27
2022-12-04T09:34:44.363Z,3.32
2022-12-04T09:37:17.929Z,3.37
2022-12-04T09:39:48.159Z,3.40
2022-12-04T09:42:35.314Z,3.44
2022-12-04T09:45:12.103Z,3.48
2022-12-04T09:47:44.715Z,3.43
2022-12-04T09:50:19.404Z,3.55
2022-12-04T09:52:57.395Z,3.59
2022-12-04T09:55:30.678Z,3.64
2022-12-04T09:58:02.582Z,3.63
2022-12-04T10:00:33.924Z,3.72
2022-12-04T10:03:40.724Z,3.71
2022-12-04T10:06:29.266Z,3.67
2022-12-04T10:09:06.177Z,3.80
2022-12-04T10:11:50.610Z,3.82
2022-12-04T10:14:47.542Z,3.82
2022-12-04T10:18:02.939Z,3.85
2022-12-04T10:20:52.976Z,3.86
2022-12-04T10:23:35.917Z,3.90
2022-12-04T10:26:06.778Z,3.94
2022-12-04T10:28:42.017Z,3.98
2022-12-04T10:31:15.380Z,4.04
2022-12-04T10:33:48.845Z,3.93
2022-12-04T10:36:21.451Z,4.14
2022-12-04T10:38:55.161Z,4.17
2022-12-04T10:41:29.359Z,4.20
2022-12-04T10:43:59.086Z,4.06
2022-12-04T10:46:35.075Z,4.19
2022-12-04T10:49:06.935Z,4.23
2022-12-04T10:51:43.854Z,4.27
2022-12-04T10:54:23.734Z,4.27
2022-12-04T10:56:57.751Z,4.27
2022-12-04T10:59:28.246Z,4.31
2022-12-04T11:02:07.311Z,4.32
2022-12-04T11:04:36.788Z,4.30
2022-12-04T11:07:09.090Z,4.27
2022-12-04T11:09:38.418Z,4.34
2022-12-04T11:12:11.229Z,4.25
2022-12-04T11:14:47.001Z,4.35
2022-12-04T11:17:20.534Z,4.38
2022-12-04T11:19:48.878Z,4.30
2022-12-04T11:22:19.959Z,4.37
2022-12-04T11:24:54.592Z,4.30
2022-12-04T11:27:28.093Z,4.29
2022-12-04T11:30:02.752Z,4.30
2022-12-04T11:32:34.148Z,4.23
2022-12-04T11:35:14.701Z,4.30
2022-12-04T11:37:45.475Z,4.31
2022-12-04T11:40:19.943Z,4.33
2022-12-04T11:43:02.506Z,4.19
2022-12-04T11:45:32.667Z,4.22
2022-12-04T11:48:04.783Z,4.24
2022-12-04T11:50:47.223Z,4.33
2022-12-04T11:53:20.518Z,4.34
2022-12-04T11:56:15.079Z,4.36
2022-12-04T11:59:13.027Z,4.39
2022-12-04T12:01:57.778Z,4.31
2022-12-04T12:04:54.877Z,4.41
2022-12-04T12:07:40.356Z,4.38
2022-12-04T12:10:17.573Z,4.30
2022-12-04T12:12:58.740Z,4.45
2022-12-04T12:15:40.808Z,4.45
2022-12-04T12:18:34.406Z,4.35
2022-12-04T12:21:10.850Z,4.46
2022-12-04T12:24:06.028Z,4.46
2022-12-04T12:26:47.309Z,4.42
2022-12-04T12:29:40.103Z,4.50
2022-12-04T12:32:31.678Z,4.50
2022-12-04T12:35:02.415Z,4.51
2022-12-04T12:37:41.132Z,4.51
2022-12-04T12:40:22.716Z,4.47
2022-12-04T12:42:58.716Z,4.47
2022-12-04T12:45:36.122Z,4.47
2022-12-04T12:48:22.792Z,4.46
2022-12-04T12:51:22.236Z,4.51
2022-12-04T12:53:51.392Z,4.50
2022-12-04T12:56:38.449Z,4.51
2022-12-04T12:59:14.577Z,4.54
2022-12-04T13:01:49.819Z,4.55
2022-12-04T13:04:24.114Z,4.53
2022-12-04T13:07:04.736Z,4.56
2022-12-04T13:09:36.243Z,4.57
2022-12-04T13:12:12.275Z,4.56
2022-12-04T13:14:47.402Z,4.58
2022-12-04T13:17:22.666Z,4.57
2022-12-04T13:19:55.312Z,4.59
2022-12-04T13:22:35.747Z,4.59
2022-12-04T13:25:23.338Z,4.61
2022-12-04T13:28:06.628Z,4.61
2022-12-04T13:30:46.601Z,4.66
2022-12-04T13:33:50.777Z,4.64
2022-12-04T13:36:33.755Z,4.64
2022-12-04T13:40:01.816Z,4.60
2022-12-04T13:42:30.979Z,4.57
2022-12-04T13:45:04.795Z,4.49
2022-12-04T13:47:35.926Z,4.50
2022-12-04T13:50:25.273Z,4.50
2022-12-04T13:52:53.775Z,4.46
2022-12-04T13:55:33.232Z,4.43
2022-12-04T13:58:04.316Z,4.39
2022-12-04T14:00:36.168Z,4.36
2022-12-04T14:03:08.804Z,4.25
2022-12-04T14:05:44.295Z,4.27
2022-12-04T14:08:26.181Z,4.27
2022-12-04T14:11:09.648Z,4.26
2022-12-04T14:13:46.288Z,4.24
2022-12-04T14:16:23.325Z,4.21
2022-12-04T14:18:55.784Z,4.21
2022-12-04T14:21:26.521Z,4.17
2022-12-04T14:23:55.595Z,4.21
2022-12-04T14:27:10.745Z,4.23
2022-12-04T14:29:49.401Z,4.18
2022-12-04T14:32:23.186Z,4.23
2022-12-04T14:34:52.987Z,4.21
2022-12-04T14:37:28.263Z,4.26
2022-12-04T14:39:57.948Z,4.27
2022-12-04T14:42:31.849Z,4.26
2022-12-04T14:45:02.727Z,4.25
2022-12-04T14:47:42.401Z,4.30
2022-12-04T14:50:29.873Z,4.30
2022-12-04T14:53:06.947Z,4.29
2022-12-04T14:55:43.790Z,4.32
2022-12-04T14:58:31.875Z,4.30
2022-12-04T15:01:03.439Z,4.19
2022-12-04T15:03:36.495Z,4.31
2022-12-04T15:06:26.534Z,4.35
2022-12-04T15:09:18.590Z,4.35
2022-12-04T15:12:21.985Z,4.36
2022-12-04T15:14:52.370Z,4.33
2022-12-04T15:17:20.778Z,4.34
2022-12-04T15:19:51.150Z,4.37
2022-12-04T15:22:25.195Z,4.42
2022-12-04T15:24:54.905Z,4.39
2022-12-04T15:27:32.890Z,4.41
2022-12-04T15:30:04.931Z,4.36
2022-12-04T15:32:34.986Z,4.44
2022-12-04T15:35:09.109Z,4.46
2022-12-04T15:37:38.214Z,4.46
2022-12-04T15:40:11.928Z,4.39
2022-12-04T15:42:49.366Z,4.45
2022-12-04T15:45:34.471Z,4.45
2022-12-04T15:48:03.618Z,4.47
2022-12-04T15:50:32.632Z,4.47
2022-12-04T15:53:08.334Z,4.42
2022-12-04T15:55:41.498Z,4.52
2022-12-04T15:58:24.767Z,4.53
2022-12-04T16:01:01.254Z,4.46
2022-12-04T16:03:33.051Z,4.59
2022-12-04T16:08:51.898Z,4.62
2022-12-04T16:11:42.046Z,4.56
2022-12-04T16:14:26.249Z,4.62
2022-12-04T16:17:05.563Z,4.53
2022-12-04T16:19:37.435Z,4.56
2022-12-04T16:22:14.165Z,4.67
2022-12-04T16:24:43.048Z,4.65
2022-12-04T16:27:14.803Z,4.68
2022-12-04T16:29:43.499Z,4.70
2022-12-04T16:32:32.027Z,4.66
2022-12-04T16:35:00.894Z,4.65
2022-12-04T16:37:30.049Z,4.73
2022-12-04T16:39:59.265Z,4.64
2022-12-04T16:42:30.596Z,4.73
2022-12-04T16:45:00.124Z,4.74
2022-12-04T16:47:30.121Z,4.67
2022-12-04T16:49:58.771Z,4.71
2022-12-04T16:52:27.199Z,4.76
2022-12-04T16:54:58.324Z,4.78
2022-12-04T16:57:29.018Z,4.80
2022-12-04T16:59:57.739Z,4.76
2022-12-04T17:02:30.551Z,4.79
2022-12-04T17:04:59.452Z,4.83
2022-12-04T17:07:28.227Z,4.75
2022-12-04T17:09:56.669Z,4.83
2022-12-04T17:12:25.176Z,4.82
2022-12-04T17:14:53.795Z,4.89
2022-12-04T17:17:23.897Z,4.90
2022-12-04T17:19:54.325Z,4.90
2022-12-04T17:22:26.468Z,4.92
2022-12-04T17:24:56.442Z,4.93
2022-12-04T17:27:25.920Z,4.86
2022-12-04T17:29:54.365Z,4.85
2022-12-04T17:32:22.860Z,4.94
2022-12-04T17:34:55.196Z,4.96
2022-12-04T17:37:24.129Z,4.95
2022-12-04T17:39:52.652Z,5.00
2022-12-04T17:42:21.566Z,5.01
2022-12-04T17:44:50.379Z,5.01
2022-12-04T17:47:19.730Z,4.98
2022-12-04T17:49:48.376Z,5.05
2022-12-04T17:52:19.750Z,5.01
2022-12-04T17:54:49.838Z,5.02
2022-12-04T17:57:18.717Z,5.03
2022-12-04T17:59:47.200Z,5.08
2022-12-04T18:02:16.555Z,5.11
2022-12-04T18:04:45.059Z,5.13
2022-12-04T18:07:13.628Z,5.13
2022-12-04T18:09:46.091Z,5.16
2022-12-04T18:12:14.966Z,5.17
2022-12-04T18:14:43.749Z,5.16
2022-12-04T18:17:12.226Z,5.11
2022-12-04T18:19:40.721Z,5.22
2022-12-04T18:22:09.634Z,5.25
2022-12-04T18:24:38.244Z,5.27
2022-12-04T18:27:09.360Z,5.28
2022-12-04T18:29:38.390Z,5.25
2022-12-04T18:32:07.220Z,5.19
2022-12-04T18:34:35.951Z,5.30
2022-12-04T18:37:04.594Z,5.32
2022-12-04T18:39:33.644Z,5.36
2022-12-04T18:42:02.529Z,5.32
2022-12-04T18:44:35.261Z,5.34
2022-12-04T18:47:03.754Z,5.32
2022-12-04T18:49:32.633Z,5.38
2022-12-04T18:52:01.192Z,5.43
2022-12-04T18:54:30.055Z,5.32
2022-12-04T18:56:58.687Z,5.34
2022-12-04T18:59:30.885Z,5.43
2022-12-04T19:02:01.133Z,5.46
2022-12-04T19:04:29.854Z,5.38
2022-12-04T19:06:58.522Z,5.38
2022-12-04T19:12:21.160Z,5.48
2022-12-04T19:14:51.728Z,5.50
2022-12-04T19:17:22.898Z,5.46
2022-12-04T19:19:52.461Z,5.49
2022-12-04T19:22:20.945Z,5.48
2022-12-04T19:24:49.833Z,5.55
2022-12-04T19:27:18.535Z,5.47
2022-12-04T19:29:50.054Z,5.57
2022-12-04T19:32:26.723Z,5.53
2022-12-04T19:34:55.423Z,5.59
2022-12-04T19:37:23.887Z,5.59
2022-12-04T19:39:52.527Z,5.59
2022-12-04T19:42:20.968Z,5.58
2022-12-04T19:44:50.010Z,5.61
2022-12-04T19:47:19.505Z,5.63
2022-12-04T19:49:49.606Z,5.55
2022-12-04T19:52:18.583Z,5.55
2022-12-04T19:54:47.160Z,5.66
2022-12-04T19:57:16.053Z,5.67
2022-12-04T19:59:47.431Z,5.55
2022-12-04T20:02:16.623Z,5.67
2022-12-04T20:04:45.282Z,5.68
2022-12-04T20:07:15.494Z,5.63
2022-12-04T20:09:52.032Z,5.59
2022-12-04T20:12:21.101Z,5.70
2022-12-04T20:14:49.651Z,5.71
2022-12-04T20:17:18.704Z,5.71
2022-12-04T20:19:49.629Z,5.66
2022-12-04T20:22:20.104Z,5.74
2022-12-04T20:24:48.680Z,5.71
2022-12-04T20:27:17.888Z,5.73
2022-12-04T20:29:46.978Z,5.61
2022-12-04T20:32:15.461Z,5.71
2022-12-04T20:34:44.156Z,5.62
2022-12-04T20:37:13.033Z,5.71
2022-12-04T20:39:47.226Z,5.76
2022-12-04T20:42:16.506Z,5.74
2022-12-04T20:44:45.059Z,5.76
2022-12-04T20:47:16.381Z,5.74
2022-12-04T20:49:45.204Z,5.75
2022-12-04T20:52:16.890Z,5.76
2022-12-04T20:54:47.427Z,5.78
2022-12-04T20:57:16.097Z,5.79
2022-12-04T20:59:44.539Z,5.81
2022-12-04T21:02:13.597Z,5.77
2022-12-04T21:04:42.783Z,5.73
2022-12-04T21:07:12.621Z,5.77
2022-12-04T21:09:41.538Z,5.84
2022-12-04T21:12:27.425Z,5.84
2022-12-04T21:15:18.646Z,5.85
2022-12-04T21:17:47.073Z,5.69
2022-12-04T21:20:16.110Z,5.80
2022-12-04T21:22:45.201Z,5.82
2022-12-04T21:25:14.355Z,5.78
2022-12-04T21:27:44.558Z,5.82
2022-12-04T21:30:14.734Z,5.88
2022-12-04T21:32:43.382Z,5.82
2022-12-04T21:35:12.491Z,5.87
2022-12-04T21:37:41.009Z,5.87
2022-12-04T21:40:11.187Z,5.92
2022-12-04T21:42:40.000Z,5.91
2022-12-04T21:45:11.342Z,5.91
2022-12-04T21:47:39.866Z,5.84
2022-12-04T21:50:10.353Z,5.91
2022-12-04T21:52:38.978Z,5.93
2022-12-04T21:55:08.117Z,5.92
2022-12-04T21:57:36.555Z,5.90
2022-12-04T22:00:06.303Z,5.89
2022-12-04T22:02:38.156Z,5.92
2022-12-04T22:05:07.782Z,5.91
2022-12-04T22:07:36.561Z,5.92
2022-12-04T22:10:10.610Z,5.87
2022-12-04T22:12:49.448Z,5.93
2022-12-04T22:15:18.780Z,5.92
2022-12-04T22:17:49.040Z,5.83
2022-12-04T22:20:20.476Z,5.96
2022-12-04T22:22:51.747Z,5.95
2022-12-04T22:25:20.445Z,5.99
2022-12-04T22:27:49.011Z,5.94
2022-12-04T22:30:17.834Z,6.01
2022-12-04T22:32:47.947Z,6.03
2022-12-04T22:35:19.369Z,5.97
2022-12-04T22:37:47.923Z,5.98
2022-12-04T22:40:18.024Z,6.01
2022-12-04T22:42:46.573Z,5.96
2022-12-04T22:45:15.744Z,6.04
2022-12-04T22:47:44.359Z,6.12
2022-12-04T22:50:16.550Z,6.13
2022-12-04T22:52:45.504Z,6.11
2022-12-04T22:55:14.172Z,6.17
2022-12-04T22:57:42.965Z,6.14
2022-12-04T23:00:12.635Z,6.13
2022-12-04T23:02:41.167Z,6.13
2022-12-04T23:05:10.229Z,6.02
2022-12-04T23:07:40.631Z,6.16
2022-12-04T23:10:10.423Z,6.12
2022-12-04T23:12:39.083Z,6.10
2022-12-04T23:15:09.374Z,6.13
2022-12-04T23:17:37.869Z,6.15
2022-12-04T23:20:08.234Z,6.15
2022-12-04T23:22:37.278Z,6.06
2022-12-04T23:25:08.869Z,6.16
2022-12-04T23:27:37.830Z,6.11
2022-12-04T23:30:08.400Z,6.17
2022-12-04T23:32:37.104Z,6.08
2022-12-04T23:35:06.414Z,6.15
2022-12-04T23:37:34.935Z,6.16
2022-12-04T23:40:03.589Z,6.17
2022-12-04T23:42:34.661Z,6.08
2022-12-04T23:45:03.280Z,6.19
2022-12-04T23:47:32.398Z,6.19
2022-12-04T23:50:02.118Z,6.19
2022-12-04T23:52:30.792Z,6.21
2022-12-04T23:54:59.447Z,6.16
2022-12-04T23:57:30.616Z,6.21
